AFR4705 NTAA-PHNL
Flight info
| Callsign | AFR4705 |
|---|---|
| Flight time | N/A |
| Altitude | 28000 |
| Route | ARITI DCT TIAMA B595 C/TAVAK/M200F450F600 TARDE/N0542F360 KOA V1 ROWIN V7 LNY DCT |
| Aircraft | CONC/H-SDFHIRY/C |
Departure
| Time | 2026-04-25 19:54 |
|---|---|
| Airport | Fa'a'ā International Airport (NTAA) |
Arrival
| Time | N/A |
|---|---|
| Airport | Daniel K. Inouye International Airport (PHNL) |
| Time | Latitude | Longitude | Altitude | Speed | Heading |
|---|---|---|---|---|---|
| 2026-04-25 19:22 | -17.55857 | -149.61011 | 17 ft | 0 kts | 144° |
| 2026-04-25 19:45 | -17.55856 | -149.61011 | 17 ft | 1 kts | 144° |
| 2026-04-25 19:45 | -17.55839 | -149.61027 | 17 ft | 4 kts | 133° |
| 2026-04-25 19:46 | -17.55825 | -149.61050 | 17 ft | 4 kts | 109° |
| 2026-04-25 19:46 | -17.55825 | -149.61072 | 17 ft | 4 kts | 58° |
| 2026-04-25 19:46 | -17.55835 | -149.61078 | 17 ft | 1 kts | 10° |
| 2026-04-25 19:46 | -17.55838 | -149.61079 | 17 ft | 0 kts | 10° |
| 2026-04-25 19:49 | -17.55829 | -149.61077 | 17 ft | 3 kts | 10° |
| 2026-04-25 19:49 | -17.55795 | -149.61072 | 17 ft | 7 kts | 3° |
| 2026-04-25 19:50 | -17.55690 | -149.61158 | 17 ft | 14 kts | 264° |
| 2026-04-25 19:50 | -17.55744 | -149.61257 | 17 ft | 18 kts | 234° |
| 2026-04-25 19:50 | -17.55824 | -149.61372 | 17 ft | 21 kts | 233° |
| 2026-04-25 19:51 | -17.55911 | -149.61498 | 17 ft | 19 kts | 233° |
| 2026-04-25 19:51 | -17.55988 | -149.61610 | 17 ft | 17 kts | 235° |
| 2026-04-25 19:51 | -17.56067 | -149.61728 | 17 ft | 16 kts | 234° |
| 2026-04-25 19:51 | -17.56124 | -149.61811 | 17 ft | 16 kts | 234° |
| 2026-04-25 19:52 | -17.56181 | -149.61893 | 17 ft | 15 kts | 234° |
| 2026-04-25 19:52 | -17.56219 | -149.61984 | 17 ft | 12 kts | 258° |
| 2026-04-25 19:52 | -17.56253 | -149.61987 | 17 ft | 6 kts | 93° |
| 2026-04-25 19:52 | -17.56219 | -149.61940 | 17 ft | 10 kts | 50° |
| 2026-04-25 19:53 | -17.56169 | -149.61872 | 17 ft | 14 kts | 53° |
| 2026-04-25 19:53 | -17.56090 | -149.61758 | 17 ft | 42 kts | 54° |
| 2026-04-25 19:53 | -17.55894 | -149.61475 | 17 ft | 101 kts | 54° |
| 2026-04-25 19:53 | -17.55306 | -149.60623 | 16 ft | 185 kts | 54° |
| 2026-04-25 19:54 | -17.54427 | -149.59357 | 190 ft | 235 kts | 53° |
| 2026-04-25 19:54 | -17.53365 | -149.57893 | 951 ft | 264 kts | 42° |
| 2026-04-25 19:54 | -17.51834 | -149.56825 | 2180 ft | 270 kts | 20° |
| 2026-04-25 19:54 | -17.50653 | -149.56412 | 2994 ft | 271 kts | 16° |
| 2026-04-25 19:55 | -17.48263 | -149.55729 | 3995 ft | 269 kts | 8° |
| 2026-04-25 19:55 | -17.46400 | -149.55475 | 4566 ft | 272 kts | 5° |
| 2026-04-25 19:55 | -17.44505 | -149.55285 | 5160 ft | 275 kts | 5° |
| 2026-04-25 19:55 | -17.42593 | -149.55109 | 5962 ft | 277 kts | 4° |
| 2026-04-25 19:56 | -17.40647 | -149.54931 | 7035 ft | 287 kts | 4° |
| 2026-04-25 19:56 | -17.38576 | -149.54738 | 8144 ft | 314 kts | 5° |
| 2026-04-25 19:56 | -17.36282 | -149.54514 | 9261 ft | 348 kts | 5° |
| 2026-04-25 19:56 | -17.33784 | -149.54247 | 10367 ft | 373 kts | 5° |
| 2026-04-25 19:57 | -17.31148 | -149.53941 | 11459 ft | 388 kts | 5° |
| 2026-04-25 19:57 | -17.28433 | -149.53614 | 12462 ft | 401 kts | 5° |
| 2026-04-25 19:57 | -17.25598 | -149.53270 | 13161 ft | 418 kts | 5° |
| 2026-04-25 19:57 | -17.22646 | -149.52958 | 13839 ft | 434 kts | 0° |
| 2026-04-25 19:58 | -17.19591 | -149.53170 | 14513 ft | 448 kts | 350° |
| 2026-04-25 19:58 | -17.16464 | -149.53769 | 15192 ft | 465 kts | 347° |
| 2026-04-25 19:58 | -17.13246 | -149.54492 | 15867 ft | 482 kts | 346° |
| 2026-04-25 19:58 | -17.09906 | -149.55280 | 16544 ft | 500 kts | 346° |
| 2026-04-25 19:59 | -17.06459 | -149.56107 | 17218 ft | 518 kts | 346° |
| 2026-04-25 19:59 | -17.02899 | -149.56962 | 18089 ft | 529 kts | 346° |
| 2026-04-25 19:59 | -16.99286 | -149.57819 | 19226 ft | 538 kts | 347° |
| 2026-04-25 19:59 | -16.95598 | -149.58668 | 20382 ft | 548 kts | 347° |
| 2026-04-25 20:00 | -16.91828 | -149.59503 | 21632 ft | 558 kts | 347° |
| 2026-04-25 20:00 | -16.89290 | -149.60055 | 22454 ft | 566 kts | 347° |
| 2026-04-25 20:00 | -16.84051 | -149.61178 | 23974 ft | 580 kts | 347° |
| 2026-04-25 20:00 | -16.80065 | -149.62026 | 24972 ft | 590 kts | 347° |
| 2026-04-25 20:01 | -16.71893 | -149.63776 | 27353 ft | 609 kts | 347° |
| 2026-04-25 20:01 | -16.67718 | -149.64687 | 28408 ft | 618 kts | 347° |
| 2026-04-25 20:01 | -16.63484 | -149.65618 | 29208 ft | 626 kts | 347° |
| 2026-04-25 20:02 | -16.59255 | -149.66546 | 29749 ft | 632 kts | 347° |
| 2026-04-25 20:02 | -16.54885 | -149.67499 | 30272 ft | 637 kts | 347° |
| 2026-04-25 20:02 | -16.50577 | -149.68433 | 30825 ft | 642 kts | 347° |
| 2026-04-25 20:02 | -16.46193 | -149.69380 | 31446 ft | 646 kts | 347° |
| 2026-04-25 20:03 | -16.41775 | -149.70333 | 32103 ft | 650 kts | 347° |
| 2026-04-25 20:03 | -16.37315 | -149.71297 | 32631 ft | 660 kts | 347° |
| 2026-04-25 20:03 | -16.32782 | -149.72281 | 33290 ft | 671 kts | 347° |
| 2026-04-25 20:03 | -16.28173 | -149.73284 | 34093 ft | 684 kts | 347° |
| 2026-04-25 20:04 | -16.23455 | -149.74309 | 34857 ft | 699 kts | 348° |
| 2026-04-25 20:04 | -16.18635 | -149.75354 | 35506 ft | 716 kts | 348° |
| 2026-04-25 20:04 | -16.13694 | -149.76423 | 36080 ft | 733 kts | 348° |
| 2026-04-25 20:04 | -16.08649 | -149.77512 | 36639 ft | 748 kts | 348° |
| 2026-04-25 20:05 | -16.03495 | -149.78624 | 37171 ft | 765 kts | 348° |
| 2026-04-25 20:05 | -15.98228 | -149.79760 | 37701 ft | 781 kts | 348° |
| 2026-04-25 20:05 | -15.92848 | -149.80920 | 38240 ft | 798 kts | 348° |
| 2026-04-25 20:05 | -15.87347 | -149.82108 | 38825 ft | 816 kts | 348° |
| 2026-04-25 20:06 | -15.81723 | -149.83323 | 39395 ft | 836 kts | 348° |
| 2026-04-25 20:06 | -15.75955 | -149.84560 | 39937 ft | 856 kts | 348° |
| 2026-04-25 20:06 | -15.70033 | -149.85786 | 40482 ft | 877 kts | 348° |
| 2026-04-25 20:06 | -15.63982 | -149.86992 | 40992 ft | 897 kts | 348° |
| 2026-04-25 20:07 | -15.57774 | -149.88181 | 41486 ft | 917 kts | 349° |
| 2026-04-25 20:07 | -15.51417 | -149.89347 | 41961 ft | 937 kts | 349° |
| 2026-04-25 20:07 | -15.44913 | -149.90463 | 42414 ft | 956 kts | 350° |
| 2026-04-25 20:07 | -15.38275 | -149.91513 | 42852 ft | 975 kts | 350° |
| 2026-04-25 20:08 | -15.31500 | -149.92521 | 43279 ft | 989 kts | 351° |
| 2026-04-25 20:08 | -15.24653 | -149.93499 | 43719 ft | 996 kts | 351° |
| 2026-04-25 20:08 | -15.17743 | -149.94462 | 44174 ft | 1004 kts | 351° |
| 2026-04-25 20:08 | -15.10802 | -149.95418 | 44667 ft | 1010 kts | 351° |
| 2026-04-25 20:09 | -15.03802 | -149.96380 | 45172 ft | 1017 kts | 351° |
| 2026-04-25 20:09 | -14.96765 | -149.97349 | 45706 ft | 1024 kts | 351° |
| 2026-04-25 20:09 | -14.89679 | -149.98335 | 46253 ft | 1031 kts | 351° |
| 2026-04-25 20:09 | -14.82543 | -149.99351 | 46809 ft | 1039 kts | 351° |
| 2026-04-25 20:10 | -14.75356 | -150.00418 | 47387 ft | 1047 kts | 350° |
| 2026-04-25 20:10 | -14.68127 | -150.01531 | 48023 ft | 1055 kts | 350° |
| 2026-04-25 20:10 | -14.60834 | -150.02684 | 48660 ft | 1065 kts | 350° |
| 2026-04-25 20:10 | -14.53470 | -150.03867 | 49281 ft | 1074 kts | 350° |
| 2026-04-25 20:11 | -14.46047 | -150.05069 | 49692 ft | 1086 kts | 350° |
| 2026-04-25 20:11 | -14.38659 | -150.06268 | 50066 ft | 1096 kts | 351° |
| 2026-04-25 20:11 | -14.31093 | -150.07484 | 50305 ft | 1100 kts | 351° |
| 2026-04-25 20:11 | -14.23516 | -150.08682 | 50450 ft | 1104 kts | 351° |
| 2026-04-25 20:12 | -14.15913 | -150.09868 | 50601 ft | 1106 kts | 351° |
| 2026-04-25 20:12 | -14.08286 | -150.11045 | 50752 ft | 1109 kts | 351° |
| 2026-04-25 20:12 | -14.00658 | -150.12213 | 50902 ft | 1111 kts | 351° |
| 2026-04-25 20:12 | -13.98066 | -150.12608 | 50953 ft | 1112 kts | 351° |
| 2026-04-25 20:13 | -13.85335 | -150.14548 | 51203 ft | 1114 kts | 351° |
| 2026-04-25 20:13 | -13.77654 | -150.15724 | 51353 ft | 1115 kts | 351° |
| 2026-04-25 20:13 | -13.69966 | -150.16913 | 51505 ft | 1115 kts | 351° |
| 2026-04-25 20:13 | -13.62299 | -150.18109 | 51655 ft | 1116 kts | 351° |
| 2026-04-25 20:14 | -13.54608 | -150.19315 | 51806 ft | 1118 kts | 351° |
| 2026-04-25 20:14 | -13.46927 | -150.20519 | 51955 ft | 1119 kts | 351° |
| 2026-04-25 20:14 | -13.39213 | -150.21721 | 52107 ft | 1121 kts | 352° |
| 2026-04-25 20:14 | -13.31504 | -150.22915 | 52256 ft | 1121 kts | 352° |
| 2026-04-25 20:15 | -13.23776 | -150.24105 | 52407 ft | 1122 kts | 352° |
| 2026-04-25 20:15 | -13.16053 | -150.25289 | 52558 ft | 1123 kts | 352° |
| 2026-04-25 20:15 | -13.08334 | -150.26468 | 52708 ft | 1123 kts | 352° |
| 2026-04-25 20:15 | -13.00601 | -150.27648 | 52858 ft | 1123 kts | 352° |
| 2026-04-25 20:16 | -12.92865 | -150.28830 | 53009 ft | 1123 kts | 352° |
| 2026-04-25 20:16 | -12.85140 | -150.30014 | 53160 ft | 1124 kts | 352° |
| 2026-04-25 20:16 | -12.77397 | -150.31208 | 53310 ft | 1125 kts | 352° |
| 2026-04-25 20:16 | -12.69657 | -150.32403 | 53461 ft | 1125 kts | 352° |
| 2026-04-25 20:17 | -12.61908 | -150.33597 | 53611 ft | 1124 kts | 352° |
| 2026-04-25 20:17 | -12.54194 | -150.34782 | 53760 ft | 1120 kts | 352° |
| 2026-04-25 20:17 | -12.46505 | -150.35960 | 53895 ft | 1113 kts | 352° |
| 2026-04-25 20:17 | -12.38875 | -150.37126 | 53944 ft | 1109 kts | 352° |
| 2026-04-25 20:18 | -12.23608 | -150.39452 | 53949 ft | 1110 kts | 352° |
| 2026-04-25 20:18 | -12.08304 | -150.41781 | 54005 ft | 1114 kts | 352° |
| 2026-04-25 20:19 | -11.92946 | -150.44131 | 54108 ft | 1116 kts | 352° |
| 2026-04-25 20:19 | -11.77587 | -150.46479 | 54203 ft | 1117 kts | 352° |
| 2026-04-25 20:20 | -11.62206 | -150.48821 | 54266 ft | 1117 kts | 353° |
| 2026-04-25 20:20 | -11.46816 | -150.51157 | 54309 ft | 1119 kts | 353° |
| 2026-04-25 20:21 | -11.31417 | -150.53492 | 54351 ft | 1119 kts | 353° |
| 2026-04-25 20:21 | -11.16005 | -150.55835 | 54389 ft | 1120 kts | 353° |
| 2026-04-25 20:22 | -11.05684 | -150.57403 | 54407 ft | 1120 kts | 353° |
| 2026-04-25 20:22 | -10.85165 | -150.60513 | 54448 ft | 1121 kts | 353° |
| 2026-04-25 20:23 | -10.69730 | -150.62846 | 54473 ft | 1121 kts | 353° |
| 2026-04-25 20:23 | -10.54301 | -150.65142 | 54495 ft | 1121 kts | 353° |
| 2026-04-25 20:24 | -10.38865 | -150.67398 | 54516 ft | 1121 kts | 353° |
| 2026-04-25 20:24 | -10.23411 | -150.69672 | 54537 ft | 1122 kts | 353° |
| 2026-04-25 20:25 | -10.07976 | -150.72040 | 54559 ft | 1122 kts | 353° |
| 2026-04-25 20:25 | -9.92552 | -150.74482 | 54582 ft | 1122 kts | 352° |
| 2026-04-25 20:26 | -9.77129 | -150.76946 | 54595 ft | 1122 kts | 352° |
| 2026-04-25 20:26 | -9.61819 | -150.79349 | 54607 ft | 1122 kts | 353° |
| 2026-04-25 20:27 | -9.46383 | -150.81725 | 54623 ft | 1121 kts | 353° |
| 2026-04-25 20:27 | -9.30949 | -150.84076 | 54638 ft | 1121 kts | 353° |
| 2026-04-25 20:28 | -9.15522 | -150.86434 | 54652 ft | 1121 kts | 353° |
| 2026-04-25 20:28 | -9.00099 | -150.88828 | 54675 ft | 1121 kts | 353° |
| 2026-04-25 20:29 | -8.84679 | -150.91231 | 54682 ft | 1120 kts | 353° |
| 2026-04-25 20:29 | -8.69268 | -150.93611 | 54696 ft | 1120 kts | 353° |
| 2026-04-25 20:30 | -8.53853 | -150.95974 | 54719 ft | 1120 kts | 353° |
| 2026-04-25 20:30 | -8.38450 | -150.98330 | 54740 ft | 1120 kts | 353° |
| 2026-04-25 20:31 | -8.23039 | -151.00706 | 54761 ft | 1120 kts | 353° |
| 2026-04-25 20:31 | -8.07635 | -151.03084 | 54783 ft | 1120 kts | 353° |
| 2026-04-25 20:32 | -7.92242 | -151.05448 | 54815 ft | 1119 kts | 353° |
| 2026-04-25 20:32 | -7.76848 | -151.07804 | 54838 ft | 1119 kts | 353° |
| 2026-04-25 20:33 | -7.61448 | -151.10159 | 54862 ft | 1119 kts | 353° |
| 2026-04-25 20:33 | -7.51150 | -151.11739 | 54878 ft | 1119 kts | 353° |
| 2026-04-25 20:34 | -7.30659 | -151.14884 | 54912 ft | 1119 kts | 353° |
| 2026-04-25 20:34 | -7.17863 | -151.16842 | 54934 ft | 1119 kts | 353° |
| 2026-04-25 20:35 | -7.02461 | -151.19194 | 54957 ft | 1119 kts | 353° |
| 2026-04-25 20:35 | -6.87063 | -151.21543 | 54985 ft | 1119 kts | 353° |
| 2026-04-25 20:36 | -6.69153 | -151.24281 | 55014 ft | 1119 kts | 353° |
| 2026-04-25 20:36 | -6.56247 | -151.26254 | 55034 ft | 1120 kts | 353° |
| 2026-04-25 20:37 | -6.40846 | -151.28604 | 55059 ft | 1120 kts | 353° |
| 2026-04-25 20:37 | -6.25440 | -151.30950 | 55083 ft | 1120 kts | 353° |
| 2026-04-25 20:38 | -6.10023 | -151.33295 | 55105 ft | 1120 kts | 353° |
| 2026-04-25 20:38 | -5.94617 | -151.35641 | 55127 ft | 1120 kts | 353° |
| 2026-04-25 20:39 | -5.79293 | -151.37974 | 55149 ft | 1120 kts | 353° |
| 2026-04-25 20:39 | -5.66387 | -151.39936 | 55166 ft | 1120 kts | 353° |
| 2026-04-25 20:40 | -5.48465 | -151.42577 | 55190 ft | 1120 kts | 353° |
| 2026-04-25 20:40 | -5.33030 | -151.44821 | 55212 ft | 1120 kts | 353° |
| 2026-04-25 20:41 | -5.17611 | -151.47095 | 55234 ft | 1120 kts | 353° |
| 2026-04-25 20:41 | -5.02207 | -151.49483 | 55256 ft | 1121 kts | 352° |
| 2026-04-25 20:42 | -4.86813 | -151.52092 | 55282 ft | 1121 kts | 352° |
| 2026-04-25 20:42 | -4.71451 | -151.54841 | 55306 ft | 1121 kts | 351° |
| 2026-04-25 20:43 | -4.56117 | -151.57647 | 55321 ft | 1121 kts | 351° |
| 2026-04-25 20:43 | -4.40764 | -151.60444 | 55337 ft | 1121 kts | 352° |
| 2026-04-25 20:44 | -4.25405 | -151.63157 | 55354 ft | 1121 kts | 352° |
| 2026-04-25 20:44 | -4.10040 | -151.65804 | 55371 ft | 1121 kts | 352° |
| 2026-04-25 20:45 | -3.94656 | -151.68425 | 55388 ft | 1121 kts | 352° |
| 2026-04-25 20:45 | -3.79280 | -151.71059 | 55408 ft | 1121 kts | 352° |
| 2026-04-25 20:46 | -3.63915 | -151.73744 | 55429 ft | 1121 kts | 352° |
| 2026-04-25 20:46 | -3.48557 | -151.76455 | 55454 ft | 1121 kts | 352° |
| 2026-04-25 20:47 | -3.33182 | -151.79149 | 55481 ft | 1121 kts | 352° |
| 2026-04-25 20:47 | -3.17807 | -151.81814 | 55515 ft | 1121 kts | 352° |
| 2026-04-25 20:48 | -3.02448 | -151.84455 | 55543 ft | 1120 kts | 352° |
| 2026-04-25 20:48 | -2.87064 | -151.87056 | 55575 ft | 1120 kts | 352° |
| 2026-04-25 20:49 | -2.71705 | -151.89653 | 55614 ft | 1119 kts | 352° |
| 2026-04-25 20:49 | -2.56460 | -151.92311 | 55648 ft | 1119 kts | 352° |
| 2026-04-25 20:50 | -2.41128 | -151.95073 | 55684 ft | 1119 kts | 352° |
| 2026-04-25 20:50 | -2.25811 | -151.97870 | 55721 ft | 1119 kts | 352° |
| 2026-04-25 20:51 | -2.10475 | -152.00643 | 55751 ft | 1119 kts | 352° |
| 2026-04-25 20:51 | -1.95150 | -152.03365 | 55781 ft | 1119 kts | 352° |
| 2026-04-25 20:52 | -1.82294 | -152.05626 | 55805 ft | 1119 kts | 352° |
| 2026-04-25 20:52 | -1.64473 | -152.08759 | 55838 ft | 1119 kts | 352° |
| 2026-04-25 20:53 | -1.49135 | -152.11494 | 55867 ft | 1119 kts | 352° |
| 2026-04-25 20:53 | -1.33805 | -152.14247 | 55894 ft | 1119 kts | 352° |
| 2026-04-25 20:54 | -1.18477 | -152.16981 | 55925 ft | 1119 kts | 352° |
| 2026-04-25 20:54 | -1.03141 | -152.19698 | 55956 ft | 1119 kts | 352° |
| 2026-04-25 20:55 | -0.87800 | -152.22411 | 55988 ft | 1119 kts | 352° |
| 2026-04-25 20:55 | -0.72467 | -152.25140 | 56025 ft | 1119 kts | 352° |
| 2026-04-25 20:56 | -0.57139 | -152.27877 | 56062 ft | 1119 kts | 352° |
| 2026-04-25 20:56 | -0.41788 | -152.30608 | 56106 ft | 1119 kts | 352° |
| 2026-04-25 20:57 | -0.26465 | -152.33325 | 56148 ft | 1119 kts | 352° |
| 2026-04-25 20:57 | -0.11139 | -152.36044 | 56190 ft | 1119 kts | 352° |
| 2026-04-25 20:58 | 0.04191 | -152.38775 | 56230 ft | 1119 kts | 352° |
| 2026-04-25 20:58 | 0.19511 | -152.41503 | 56267 ft | 1118 kts | 352° |
| 2026-04-25 20:59 | 0.34835 | -152.44226 | 56303 ft | 1118 kts | 352° |
| 2026-04-25 20:59 | 0.50157 | -152.46945 | 56336 ft | 1118 kts | 352° |
| 2026-04-25 21:00 | 0.60312 | -152.48750 | 56357 ft | 1118 kts | 352° |
| 2026-04-25 21:01 | 0.88496 | -152.53768 | 56412 ft | 1118 kts | 352° |
| 2026-04-25 21:01 | 1.03703 | -152.56470 | 56441 ft | 1118 kts | 352° |
| 2026-04-25 21:02 | 1.19028 | -152.59193 | 56468 ft | 1118 kts | 352° |
| 2026-04-25 21:02 | 1.34339 | -152.61917 | 56493 ft | 1118 kts | 352° |
| 2026-04-25 21:03 | 1.49685 | -152.64651 | 56518 ft | 1119 kts | 352° |
| 2026-04-25 21:03 | 1.65017 | -152.67379 | 56545 ft | 1119 kts | 352° |
| 2026-04-25 21:04 | 1.80343 | -152.70104 | 56570 ft | 1119 kts | 352° |
| 2026-04-25 21:04 | 1.95680 | -152.72832 | 56595 ft | 1119 kts | 352° |
| 2026-04-25 21:05 | 2.11015 | -152.75565 | 56614 ft | 1120 kts | 352° |
| 2026-04-25 21:05 | 2.26356 | -152.78298 | 56638 ft | 1120 kts | 352° |
| 2026-04-25 21:06 | 2.41704 | -152.81030 | 56661 ft | 1120 kts | 352° |
| 2026-04-25 21:06 | 2.57055 | -152.83761 | 56681 ft | 1120 kts | 352° |
| 2026-04-25 21:07 | 2.72401 | -152.86498 | 56696 ft | 1121 kts | 352° |
| 2026-04-25 21:07 | 2.87767 | -152.89239 | 56717 ft | 1121 kts | 352° |
| 2026-04-25 21:08 | 3.03133 | -152.91978 | 56736 ft | 1122 kts | 352° |
| 2026-04-25 21:08 | 3.18503 | -152.94716 | 56754 ft | 1122 kts | 352° |
| 2026-04-25 21:09 | 3.41566 | -152.98831 | 56779 ft | 1123 kts | 352° |
| 2026-04-25 21:09 | 3.56948 | -153.01578 | 56799 ft | 1123 kts | 352° |
| 2026-04-25 21:10 | 3.72351 | -153.04327 | 56819 ft | 1123 kts | 352° |
| 2026-04-25 21:10 | 3.87727 | -153.07069 | 56840 ft | 1123 kts | 352° |
| 2026-04-25 21:11 | 4.03123 | -153.09813 | 56859 ft | 1124 kts | 352° |
| 2026-04-25 21:11 | 4.18536 | -153.12575 | 56866 ft | 1126 kts | 352° |
| 2026-04-25 21:12 | 4.33953 | -153.15339 | 56886 ft | 1126 kts | 352° |
| 2026-04-25 21:12 | 4.44271 | -153.17185 | 56894 ft | 1126 kts | 352° |
| 2026-04-25 21:13 | 4.64801 | -153.20855 | 56906 ft | 1126 kts | 352° |
| 2026-04-25 21:13 | 4.80240 | -153.23620 | 56912 ft | 1127 kts | 352° |
| 2026-04-25 21:14 | 4.95677 | -153.26393 | 56919 ft | 1127 kts | 352° |
| 2026-04-25 21:14 | 5.11111 | -153.29161 | 56922 ft | 1127 kts | 352° |
| 2026-04-25 21:15 | 5.26547 | -153.31926 | 56920 ft | 1128 kts | 352° |
| 2026-04-25 21:15 | 5.42003 | -153.34698 | 56923 ft | 1128 kts | 352° |
| 2026-04-25 21:16 | 5.57461 | -153.37479 | 56922 ft | 1129 kts | 352° |
| 2026-04-25 21:16 | 5.72920 | -153.40258 | 56923 ft | 1129 kts | 351° |
| 2026-04-25 21:17 | 5.85779 | -153.42568 | 56926 ft | 1129 kts | 351° |
| 2026-04-25 21:17 | 6.01260 | -153.45349 | 56933 ft | 1130 kts | 351° |
| 2026-04-25 21:18 | 6.16744 | -153.48138 | 56939 ft | 1130 kts | 351° |
| 2026-04-25 21:18 | 6.32237 | -153.50930 | 56947 ft | 1131 kts | 351° |
| 2026-04-25 21:19 | 6.47731 | -153.53722 | 56957 ft | 1131 kts | 351° |
| 2026-04-25 21:19 | 6.63224 | -153.56513 | 56969 ft | 1131 kts | 351° |
| 2026-04-25 21:20 | 6.76199 | -153.58854 | 56979 ft | 1132 kts | 351° |
| 2026-04-25 21:20 | 6.94226 | -153.62110 | 56998 ft | 1132 kts | 351° |
| 2026-04-25 21:21 | 7.09734 | -153.64912 | 57009 ft | 1132 kts | 351° |
| 2026-04-25 21:21 | 7.25246 | -153.67716 | 57020 ft | 1132 kts | 351° |
| 2026-04-25 21:22 | 7.40750 | -153.70520 | 57031 ft | 1132 kts | 351° |
| 2026-04-25 21:22 | 7.56257 | -153.73328 | 57044 ft | 1132 kts | 351° |
| 2026-04-25 21:23 | 7.71773 | -153.76140 | 57056 ft | 1132 kts | 351° |
| 2026-04-25 21:23 | 7.87280 | -153.78952 | 57071 ft | 1132 kts | 351° |
| 2026-04-25 21:24 | 8.02792 | -153.81766 | 57090 ft | 1132 kts | 351° |
| 2026-04-25 21:24 | 8.18315 | -153.84584 | 57110 ft | 1133 kts | 351° |
| 2026-04-25 21:25 | 8.33831 | -153.87405 | 57134 ft | 1133 kts | 351° |
| 2026-04-25 21:25 | 8.49363 | -153.90231 | 57158 ft | 1133 kts | 351° |
| 2026-04-25 21:26 | 8.64786 | -153.93037 | 57183 ft | 1134 kts | 351° |
| 2026-04-25 21:26 | 8.80309 | -153.95865 | 57201 ft | 1134 kts | 351° |
| 2026-04-25 21:27 | 8.95847 | -153.98699 | 57223 ft | 1134 kts | 351° |
| 2026-04-25 21:27 | 9.11376 | -154.01534 | 57249 ft | 1134 kts | 351° |
| 2026-04-25 21:28 | 9.26903 | -154.04370 | 57263 ft | 1133 kts | 351° |
| 2026-04-25 21:28 | 9.42433 | -154.07207 | 57280 ft | 1134 kts | 351° |
| 2026-04-25 21:29 | 9.57964 | -154.10051 | 57300 ft | 1134 kts | 351° |
| 2026-04-25 21:29 | 9.73605 | -154.12917 | 57318 ft | 1135 kts | 351° |
| 2026-04-25 21:30 | 9.89052 | -154.15748 | 57338 ft | 1135 kts | 351° |
| 2026-04-25 21:30 | 10.02077 | -154.18137 | 57355 ft | 1135 kts | 351° |
| 2026-04-25 21:31 | 10.20151 | -154.21457 | 57382 ft | 1135 kts | 351° |
| 2026-04-25 21:31 | 10.35700 | -154.24317 | 57406 ft | 1135 kts | 351° |
| 2026-04-25 21:32 | 10.51243 | -154.27177 | 57429 ft | 1135 kts | 351° |
| 2026-04-25 21:32 | 10.66784 | -154.30050 | 57448 ft | 1134 kts | 351° |
| 2026-04-25 21:33 | 10.82309 | -154.32945 | 57465 ft | 1134 kts | 351° |
| 2026-04-25 21:33 | 10.97825 | -154.35816 | 57481 ft | 1133 kts | 351° |
| 2026-04-25 21:34 | 11.13332 | -154.38662 | 57495 ft | 1132 kts | 351° |
| 2026-04-25 21:34 | 11.28847 | -154.41500 | 57507 ft | 1132 kts | 351° |
| 2026-04-25 21:35 | 11.44359 | -154.44361 | 57519 ft | 1132 kts | 351° |
| 2026-04-25 21:35 | 11.59856 | -154.47243 | 57531 ft | 1131 kts | 350° |
| 2026-04-25 21:36 | 11.75343 | -154.50120 | 57542 ft | 1131 kts | 351° |
| 2026-04-25 21:36 | 11.90845 | -154.52986 | 57554 ft | 1131 kts | 351° |
| 2026-04-25 21:37 | 12.03726 | -154.55366 | 57567 ft | 1131 kts | 350° |
| 2026-04-25 21:37 | 12.21828 | -154.58731 | 57593 ft | 1131 kts | 350° |
| 2026-04-25 21:38 | 12.37297 | -154.61618 | 57621 ft | 1131 kts | 350° |
| 2026-04-25 21:38 | 12.52781 | -154.64500 | 57658 ft | 1130 kts | 350° |
| 2026-04-25 21:39 | 12.68172 | -154.67362 | 57698 ft | 1130 kts | 350° |
| 2026-04-25 21:39 | 12.83643 | -154.70252 | 57744 ft | 1130 kts | 350° |
| 2026-04-25 21:40 | 12.99106 | -154.73148 | 57796 ft | 1129 kts | 350° |
| 2026-04-25 21:40 | 13.14558 | -154.76039 | 57855 ft | 1129 kts | 350° |
| 2026-04-25 21:41 | 13.30022 | -154.78932 | 57916 ft | 1129 kts | 350° |
| 2026-04-25 21:41 | 13.45470 | -154.81834 | 57975 ft | 1128 kts | 350° |